createdAt,value
2017-08-28T00:00:25.095Z,0.00
2017-08-28T00:01:25.076Z,0.00
2017-08-28T00:02:25.130Z,0.00
2017-08-28T00:03:25.181Z,0.00
2017-08-28T00:04:25.230Z,0.00
2017-08-28T00:05:25.349Z,0.00
2017-08-28T00:06:25.337Z,0.00
2017-08-28T00:07:25.393Z,0.00
2017-08-28T00:08:25.443Z,0.00
2017-08-28T00:09:25.495Z,0.00
2017-08-28T00:10:25.628Z,0.00
2017-08-28T00:11:25.598Z,0.00
2017-08-28T00:12:25.668Z,0.00
2017-08-28T00:13:25.705Z,0.00
2017-08-28T00:14:25.759Z,0.00
2017-08-28T00:15:25.890Z,0.00
2017-08-28T00:16:25.859Z,0.00
2017-08-28T00:17:25.914Z,0.00
2017-08-28T00:18:25.966Z,0.00
2017-08-28T00:19:26.018Z,0.00
2017-08-28T00:20:26.133Z,0.00
2017-08-28T00:21:26.184Z,0.00
2017-08-28T00:22:26.175Z,0.00
2017-08-28T00:23:26.225Z,0.00
2017-08-28T00:24:26.279Z,0.00
2017-08-28T00:25:26.334Z,0.00
2017-08-28T00:26:26.458Z,0.00
2017-08-28T00:27:26.434Z,0.00
2017-08-28T00:28:26.492Z,0.00
2017-08-28T00:29:26.541Z,0.00
2017-08-28T00:30:26.593Z,0.00
2017-08-28T00:31:26.729Z,0.00
2017-08-28T00:32:26.699Z,0.00
2017-08-28T00:33:26.754Z,0.00
2017-08-28T00:34:26.800Z,0.00
2017-08-28T00:35:26.857Z,0.00
2017-08-28T00:36:26.972Z,0.00
2017-08-28T00:37:27.023Z,0.00
2017-08-28T00:38:27.012Z,0.00
2017-08-28T00:39:27.061Z,0.00
2017-08-28T00:40:27.116Z,0.00
2017-08-28T00:41:27.167Z,0.00
2017-08-28T00:42:27.288Z,0.00
2017-08-28T00:43:27.270Z,0.00
2017-08-28T00:44:27.325Z,0.00
2017-08-28T00:45:27.374Z,0.00
2017-08-28T00:46:27.429Z,0.00
2017-08-28T00:47:27.549Z,0.00
2017-08-28T00:48:27.535Z,0.00
2017-08-28T00:49:27.586Z,0.00
2017-08-28T00:50:27.639Z,0.00
2017-08-28T00:51:27.688Z,0.00
2017-08-28T00:52:27.808Z,0.00
2017-08-28T00:53:28.729Z,0.00
2017-08-28T00:54:27.848Z,0.00
2017-08-28T00:55:27.897Z,0.00
2017-08-28T00:56:27.952Z,0.00
2017-08-28T00:57:28.078Z,0.00
2017-08-28T00:58:28.057Z,0.00
2017-08-28T00:59:28.115Z,0.00
2017-08-28T01:00:28.161Z,0.00
2017-08-28T01:01:28.216Z,0.00
2017-08-28T01:02:28.334Z,0.00
2017-08-28T01:03:28.380Z,0.00
2017-08-28T01:04:28.371Z,0.00
2017-08-28T01:05:28.428Z,0.00
2017-08-28T01:06:28.477Z,0.00
2017-08-28T01:07:28.529Z,0.00
2017-08-28T01:08:28.645Z,0.00
2017-08-28T01:09:28.632Z,0.00
2017-08-28T01:10:28.690Z,0.00
2017-08-28T01:11:28.738Z,0.00
2017-08-28T01:12:28.791Z,0.00
2017-08-28T01:13:28.906Z,0.00
2017-08-28T01:14:28.894Z,0.00
2017-08-28T01:15:28.946Z,0.00
2017-08-28T01:16:28.998Z,0.00
2017-08-28T01:17:29.052Z,0.00
2017-08-28T01:18:29.178Z,0.00
2017-08-28T01:19:29.152Z,0.00
2017-08-28T01:20:29.207Z,0.00
2017-08-28T01:21:29.260Z,0.00
2017-08-28T01:22:29.313Z,0.00
2017-08-28T01:23:29.431Z,0.00
2017-08-28T01:24:29.480Z,0.00
2017-08-28T01:25:29.473Z,0.00
2017-08-28T01:26:29.520Z,0.00
2017-08-28T01:27:30.089Z,0.00
2017-08-28T01:28:29.624Z,0.00
2017-08-28T01:29:29.749Z,0.00
2017-08-28T01:30:29.733Z,0.00
2017-08-28T01:31:29.782Z,0.00
2017-08-28T01:32:29.834Z,0.00
2017-08-28T01:33:29.883Z,0.00
2017-08-28T01:34:30.006Z,0.00
2017-08-28T01:35:29.986Z,0.00
2017-08-28T01:36:30.043Z,0.00
2017-08-28T01:37:30.100Z,0.00
2017-08-28T01:38:30.154Z,0.00
2017-08-28T01:39:30.268Z,0.00
2017-08-28T01:40:30.252Z,0.00
2017-08-28T01:41:30.299Z,0.00
2017-08-28T01:42:30.357Z,0.00
2017-08-28T01:43:30.414Z,0.00
2017-08-28T01:44:30.521Z,0.00
2017-08-28T01:45:30.512Z,0.00
2017-08-28T01:46:30.566Z,0.00
2017-08-28T01:47:30.616Z,0.00
2017-08-28T01:48:30.664Z,0.00
2017-08-28T01:49:30.791Z,0.00
2017-08-28T01:50:30.773Z,0.00
2017-08-28T01:51:30.827Z,0.00
2017-08-28T01:52:30.877Z,0.00
2017-08-28T01:53:30.929Z,0.00
2017-08-28T01:54:31.045Z,0.00
2017-08-28T01:55:31.096Z,0.00
2017-08-28T01:56:31.082Z,0.00
2017-08-28T01:57:31.136Z,0.00
2017-08-28T01:58:31.198Z,0.00
2017-08-28T01:59:31.239Z,0.00
2017-08-28T02:00:31.362Z,0.00
2017-08-28T02:01:31.348Z,0.00
2017-08-28T02:02:31.397Z,0.00
2017-08-28T02:03:31.449Z,0.00
2017-08-28T02:04:31.503Z,0.00
2017-08-28T02:05:31.634Z,0.00
2017-08-28T02:06:31.607Z,0.00
2017-08-28T02:07:31.659Z,0.00
2017-08-28T02:08:31.710Z,0.00
2017-08-28T02:09:31.762Z,0.00
2017-08-28T02:10:31.877Z,0.00
2017-08-28T02:11:31.929Z,0.00
2017-08-28T02:12:31.920Z,0.00
2017-08-28T02:13:31.969Z,0.00
2017-08-28T02:14:32.024Z,0.00
2017-08-28T02:15:32.075Z,0.00
2017-08-28T02:16:32.190Z,0.00
2017-08-28T02:17:32.221Z,0.00
2017-08-28T02:18:32.230Z,0.00
2017-08-28T02:19:32.285Z,0.00
2017-08-28T02:20:32.334Z,0.00
2017-08-28T02:21:32.455Z,0.00
2017-08-28T02:22:32.438Z,0.00
2017-08-28T02:23:32.498Z,0.00
2017-08-28T02:24:32.544Z,0.00
2017-08-28T02:25:32.606Z,0.00
2017-08-28T02:26:32.712Z,0.00
2017-08-28T02:27:32.704Z,0.00
2017-08-28T02:28:32.751Z,0.00
2017-08-28T02:29:32.803Z,0.00
2017-08-28T02:30:32.857Z,0.00
2017-08-28T02:31:32.975Z,0.00
2017-08-28T02:32:32.961Z,0.00
2017-08-28T02:33:33.015Z,0.00
2017-08-28T02:34:33.067Z,0.00
2017-08-28T02:35:33.116Z,0.00
2017-08-28T02:36:33.236Z,0.00
2017-08-28T02:37:33.227Z,0.00
2017-08-28T02:38:33.274Z,0.00
2017-08-28T02:39:33.325Z,0.00
2017-08-28T02:40:33.377Z,0.00
2017-08-28T02:41:33.514Z,0.00
2017-08-28T02:42:33.484Z,0.00
2017-08-28T02:43:33.535Z,0.00
2017-08-28T02:44:33.585Z,0.00
2017-08-28T02:45:33.639Z,0.00
2017-08-28T02:46:33.763Z,0.00
2017-08-28T02:47:33.739Z,0.00
2017-08-28T02:48:33.794Z,0.00
2017-08-28T02:49:33.843Z,0.00
2017-08-28T02:50:33.910Z,0.00
2017-08-28T02:51:34.039Z,0.00
2017-08-28T02:52:34.009Z,0.00
2017-08-28T02:53:34.059Z,0.00
2017-08-28T02:54:34.111Z,0.00
2017-08-28T02:55:34.159Z,0.00
2017-08-28T02:56:34.283Z,0.00
2017-08-28T02:57:34.261Z,0.00
2017-08-28T02:58:34.316Z,0.00
2017-08-28T02:59:34.366Z,0.00
2017-08-28T03:00:34.424Z,0.00
2017-08-28T03:01:34.557Z,0.00
2017-08-28T03:02:34.527Z,0.00
2017-08-28T03:03:34.577Z,0.00
2017-08-28T03:04:34.632Z,0.00
2017-08-28T03:05:34.679Z,0.00
2017-08-28T03:06:34.795Z,0.00
2017-08-28T03:07:34.852Z,0.00
2017-08-28T03:08:34.835Z,0.00
2017-08-28T03:09:34.886Z,0.00
2017-08-28T03:10:34.941Z,0.00
2017-08-28T03:11:34.990Z,0.00
2017-08-28T03:12:35.108Z,0.00
2017-08-28T03:13:35.096Z,0.00
2017-08-28T03:14:35.148Z,0.00
2017-08-28T03:15:35.200Z,0.00
2017-08-28T03:16:35.249Z,0.00
2017-08-28T03:17:35.364Z,0.00
2017-08-28T03:18:35.360Z,0.00
2017-08-28T03:19:35.407Z,0.00
2017-08-28T03:20:35.459Z,0.00
2017-08-28T03:21:35.510Z,0.00
2017-08-28T03:22:35.644Z,0.00
2017-08-28T03:23:35.611Z,0.00
2017-08-28T03:24:35.663Z,0.00
2017-08-28T03:25:35.725Z,0.00
2017-08-28T03:26:35.773Z,0.00
2017-08-28T03:27:35.906Z,0.00
2017-08-28T03:28:35.874Z,0.00
2017-08-28T03:29:35.927Z,0.00
2017-08-28T03:30:35.977Z,0.00
2017-08-28T03:31:36.030Z,0.00
2017-08-28T03:32:36.151Z,0.00
2017-08-28T03:33:36.197Z,0.00
2017-08-28T03:34:36.183Z,0.00
2017-08-28T03:35:36.242Z,0.00
2017-08-28T03:36:36.289Z,0.00
2017-08-28T03:37:36.338Z,0.00
2017-08-28T03:38:36.453Z,0.00
2017-08-28T03:39:36.439Z,0.00
2017-08-28T03:40:36.493Z,0.00
2017-08-28T03:41:36.550Z,0.00
2017-08-28T03:42:36.597Z,0.00
2017-08-28T03:43:36.715Z,0.00
2017-08-28T03:44:36.705Z,0.00
2017-08-28T03:45:36.753Z,0.00
2017-08-28T03:46:36.807Z,0.00
2017-08-28T03:47:36.857Z,0.00
2017-08-28T03:48:36.971Z,0.00
2017-08-28T03:49:36.959Z,0.00
2017-08-28T03:50:37.016Z,0.00
2017-08-28T03:51:37.063Z,0.00
2017-08-28T03:52:37.115Z,0.00
2017-08-28T03:53:37.249Z,0.00
2017-08-28T03:54:38.124Z,0.00
2017-08-28T03:55:37.270Z,0.00
2017-08-28T03:56:37.319Z,0.00
2017-08-28T03:57:37.373Z,0.00
2017-08-28T03:58:37.510Z,0.00
2017-08-28T03:59:37.474Z,0.00
2017-08-28T04:00:37.528Z,0.00
2017-08-28T04:01:37.578Z,0.00
2017-08-28T04:02:37.630Z,0.00
2017-08-28T04:03:37.761Z,0.00
2017-08-28T04:04:37.733Z,0.00
2017-08-28T04:05:37.793Z,0.00
2017-08-28T04:06:37.837Z,0.00
2017-08-28T04:07:37.887Z,0.00
2017-08-28T04:08:38.004Z,0.00
2017-08-28T04:09:38.053Z,0.00
2017-08-28T04:10:38.044Z,0.00
2017-08-28T04:11:38.093Z,0.00
2017-08-28T04:12:38.147Z,0.00
2017-08-28T04:13:38.196Z,0.00
2017-08-28T04:14:38.314Z,0.00
2017-08-28T04:15:38.308Z,0.00
2017-08-28T04:16:38.351Z,0.00
2017-08-28T04:17:38.400Z,0.00
2017-08-28T04:18:38.452Z,0.00
2017-08-28T04:19:38.573Z,0.00
2017-08-28T04:20:38.559Z,0.00
2017-08-28T04:21:38.611Z,0.00
2017-08-28T04:22:38.662Z,0.00
2017-08-28T04:23:38.708Z,0.00
2017-08-28T04:24:38.831Z,0.00
2017-08-28T04:25:38.812Z,0.00
2017-08-28T04:26:38.864Z,0.00
2017-08-28T04:27:38.919Z,0.00
2017-08-28T04:28:38.970Z,0.00
2017-08-28T04:29:39.101Z,0.00
2017-08-28T04:30:39.073Z,5.63
2017-08-28T04:31:39.130Z,5.63
2017-08-28T04:32:39.177Z,5.63
2017-08-28T04:33:39.226Z,5.63
2017-08-28T04:34:39.360Z,5.63
2017-08-28T04:35:39.326Z,5.63
2017-08-28T04:36:39.381Z,5.63
2017-08-28T04:37:39.432Z,5.63
2017-08-28T04:38:39.482Z,5.63
2017-08-28T04:39:39.624Z,5.63
2017-08-28T04:40:39.583Z,11.25
2017-08-28T04:41:39.643Z,11.25
2017-08-28T04:42:39.691Z,11.25
2017-08-28T04:43:39.741Z,11.25
2017-08-28T04:44:39.880Z,16.88
2017-08-28T04:45:39.842Z,16.88
2017-08-28T04:46:39.895Z,16.88
2017-08-28T04:47:39.942Z,16.88
2017-08-28T04:48:39.997Z,22.50
2017-08-28T04:49:40.114Z,22.50
2017-08-28T04:50:40.169Z,22.50
2017-08-28T04:51:40.149Z,22.50
2017-08-28T04:52:40.221Z,28.13
2017-08-28T04:53:40.255Z,28.13
2017-08-28T04:54:40.307Z,28.13
2017-08-28T04:55:40.422Z,28.13
2017-08-28T04:56:40.408Z,33.75
2017-08-28T04:57:40.460Z,33.75
2017-08-28T04:58:40.509Z,33.75
2017-08-28T04:59:40.563Z,39.38
2017-08-28T05:00:40.680Z,39.38
2017-08-28T05:01:40.670Z,39.38
2017-08-28T05:02:40.719Z,45.00
2017-08-28T05:03:40.773Z,45.00
2017-08-28T05:04:40.819Z,50.63
2017-08-28T05:05:40.937Z,50.63
2017-08-28T05:06:40.923Z,56.25
2017-08-28T05:07:40.981Z,56.25
2017-08-28T05:08:41.028Z,56.25
2017-08-28T05:09:41.078Z,61.88
2017-08-28T05:10:41.214Z,61.88
2017-08-28T05:11:41.182Z,67.50
2017-08-28T05:12:41.234Z,67.50
2017-08-28T05:13:41.309Z,67.50
2017-08-28T05:14:41.335Z,73.13
2017-08-28T05:15:41.468Z,73.13
2017-08-28T05:16:41.438Z,78.75
2017-08-28T05:17:41.490Z,78.75
2017-08-28T05:18:41.546Z,84.38
2017-08-28T05:19:41.591Z,90.00
2017-08-28T05:20:41.711Z,90.00
2017-08-28T05:21:41.758Z,95.63
2017-08-28T05:22:41.757Z,101.25
2017-08-28T05:23:41.801Z,106.88
2017-08-28T05:24:41.855Z,106.88
2017-08-28T05:25:41.902Z,106.88
2017-08-28T05:26:42.024Z,106.88
2017-08-28T05:27:42.004Z,112.50
2017-08-28T05:28:42.056Z,112.50
2017-08-28T05:29:42.108Z,118.13
2017-08-28T05:30:42.160Z,118.13
2017-08-28T05:31:42.300Z,123.75
2017-08-28T05:32:42.266Z,123.75
2017-08-28T05:33:42.316Z,129.38
2017-08-28T05:34:42.368Z,129.38
2017-08-28T05:35:42.419Z,135.00
2017-08-28T05:36:42.553Z,135.00
2017-08-28T05:37:42.522Z,140.63
2017-08-28T05:38:42.574Z,140.63
2017-08-28T05:39:42.626Z,146.25
2017-08-28T05:40:42.678Z,146.25
2017-08-28T05:41:42.812Z,151.88
2017-08-28T05:42:43.083Z,157.50
2017-08-28T05:43:43.668Z,168.75
2017-08-28T05:44:42.888Z,174.38
2017-08-28T05:45:45.247Z,180.00
2017-08-28T05:46:46.529Z,185.63
2017-08-28T05:47:43.056Z,185.63
2017-08-28T05:48:43.091Z,191.25
2017-08-28T05:49:43.146Z,191.25
2017-08-28T05:50:43.195Z,196.88
2017-08-28T05:51:46.756Z,196.88
2017-08-28T05:52:47.398Z,196.88
2017-08-28T05:53:46.035Z,202.50
2017-08-28T05:54:46.031Z,202.50
2017-08-28T05:55:46.117Z,208.13
2017-08-28T05:56:46.066Z,208.13
2017-08-28T05:57:52.053Z,208.13
2017-08-28T05:58:48.694Z,213.75
2017-08-28T05:59:46.258Z,213.75
2017-08-28T06:00:46.833Z,219.38
2017-08-28T06:01:46.412Z,225.00
2017-08-28T06:02:47.667Z,225.00
2017-08-28T06:03:45.776Z,230.63
2017-08-28T06:04:45.022Z,230.63
2017-08-28T06:05:45.960Z,236.25
2017-08-28T06:06:46.309Z,236.25
2017-08-28T06:07:46.264Z,241.88
2017-08-28T06:08:47.276Z,247.50
2017-08-28T06:09:46.917Z,247.50
2017-08-28T06:10:46.923Z,253.13
2017-08-28T06:11:46.966Z,258.75
2017-08-28T06:12:46.997Z,270.00
2017-08-28T06:13:48.744Z,270.00
2017-08-28T06:14:47.103Z,275.63
2017-08-28T06:15:47.180Z,281.25
2017-08-28T06:16:48.791Z,275.63
2017-08-28T06:17:47.288Z,275.63
2017-08-28T06:18:49.386Z,270.00
2017-08-28T06:19:47.306Z,275.63
2017-08-28T06:20:48.410Z,275.63
2017-08-28T06:21:47.476Z,281.25
2017-08-28T06:22:47.517Z,281.25
2017-08-28T06:23:48.960Z,286.88
2017-08-28T06:24:47.486Z,292.50
2017-08-28T06:25:47.649Z,292.50
2017-08-28T06:26:47.761Z,303.75
2017-08-28T06:27:48.176Z,303.75
2017-08-28T06:28:49.243Z,303.75
2017-08-28T06:29:47.912Z,309.38
2017-08-28T06:30:47.921Z,309.38
2017-08-28T06:31:47.962Z,309.38
2017-08-28T06:32:47.981Z,315.00
2017-08-28T06:33:50.302Z,315.00
2017-08-28T06:34:48.170Z,326.25
2017-08-28T06:35:48.056Z,331.88
2017-08-28T06:36:48.235Z,343.13
2017-08-28T06:37:48.265Z,348.75
2017-08-28T06:38:50.298Z,348.75
2017-08-28T06:39:48.432Z,365.63
2017-08-28T06:40:49.398Z,371.25
2017-08-28T06:41:48.509Z,376.88
2017-08-28T06:42:49.372Z,376.88
2017-08-28T06:43:48.610Z,382.50
2017-08-28T06:44:50.808Z,416.25
2017-08-28T06:45:49.247Z,393.75
2017-08-28T06:46:48.780Z,466.88
2017-08-28T06:47:48.787Z,405.00
2017-08-28T06:48:48.966Z,466.88
2017-08-28T06:49:50.417Z,427.50
2017-08-28T06:50:48.987Z,393.75
2017-08-28T06:51:49.024Z,438.75
2017-08-28T06:52:49.802Z,444.38
2017-08-28T06:53:49.138Z,410.63
2017-08-28T06:54:50.629Z,410.63
2017-08-28T06:55:49.395Z,478.13
2017-08-28T06:56:52.834Z,545.63
2017-08-28T06:57:52.258Z,579.38
2017-08-28T06:58:50.847Z,511.88
2017-08-28T06:59:53.024Z,641.25
2017-08-28T07:00:53.677Z,708.75
2017-08-28T07:01:51.837Z,708.75
2017-08-28T07:02:49.959Z,714.38
2017-08-28T07:03:49.714Z,708.75
2017-08-28T07:04:51.276Z,714.38
2017-08-28T07:05:51.869Z,708.75
2017-08-28T07:06:50.953Z,613.13
2017-08-28T07:07:59.840Z,556.88
2017-08-28T07:08:58.805Z,714.38
2017-08-28T07:09:57.145Z,697.50
2017-08-28T07:10:56.277Z,652.50
2017-08-28T07:12:02.238Z,787.50
2017-08-28T07:12:54.004Z,781.88
2017-08-28T07:13:54.779Z,821.25
2017-08-28T07:14:55.848Z,838.13
2017-08-28T07:15:57.360Z,849.38
2017-08-28T07:16:50.016Z,860.63
2017-08-28T07:17:50.500Z,871.88
2017-08-28T07:18:50.315Z,877.50
2017-08-28T07:19:51.382Z,888.75
2017-08-28T07:20:56.278Z,905.63
2017-08-28T07:21:53.277Z,922.50
2017-08-28T07:22:57.819Z,928.13
2017-08-28T07:23:53.532Z,933.75
2017-08-28T07:24:54.577Z,945.00
2017-08-28T07:25:57.448Z,950.63
2017-08-28T07:26:54.927Z,961.88
2017-08-28T07:27:59.494Z,973.13
2017-08-28T07:28:56.970Z,973.13
2017-08-28T07:29:55.838Z,984.38
2017-08-28T07:30:54.003Z,990.00
2017-08-28T07:31:53.530Z,995.63
2017-08-28T07:32:51.269Z,1001.25
2017-08-28T07:33:51.774Z,1012.50
2017-08-28T07:34:52.609Z,1029.38
2017-08-28T07:35:51.151Z,1029.38
2017-08-28T07:36:52.649Z,1040.63
2017-08-28T07:37:51.746Z,1057.50
2017-08-28T07:38:51.562Z,1080.00
2017-08-28T07:39:54.323Z,1091.25
2017-08-28T07:40:51.698Z,1108.13
2017-08-28T07:41:51.805Z,1119.38
2017-08-28T07:42:53.148Z,1141.88
2017-08-28T07:43:53.756Z,1164.38
2017-08-28T07:44:56.206Z,1147.50
2017-08-28T07:45:55.842Z,1192.50
2017-08-28T07:46:58.466Z,1203.75
2017-08-28T07:48:02.939Z,1226.25
2017-08-28T07:48:59.310Z,1254.38
2017-08-28T07:49:52.655Z,1265.63
2017-08-28T07:50:52.174Z,1282.50
2017-08-28T07:51:52.281Z,1288.13
2017-08-28T07:52:59.125Z,1288.13
2017-08-28T07:53:54.466Z,1293.75
2017-08-28T07:54:52.617Z,1299.38
2017-08-28T07:55:53.721Z,1310.63
2017-08-28T07:56:52.635Z,1305.00
2017-08-28T07:57:54.842Z,1321.88
2017-08-28T07:58:52.700Z,1333.13
2017-08-28T07:59:52.768Z,1333.13
2017-08-28T08:00:52.808Z,1350.00
2017-08-28T08:01:52.945Z,1350.00
2017-08-28T08:02:55.298Z,1361.25
2017-08-28T08:03:54.800Z,1366.88
2017-08-28T08:04:53.148Z,1372.50
2017-08-28T08:05:53.494Z,1383.75
2017-08-28T08:06:53.994Z,1400.63
2017-08-28T08:07:53.926Z,1428.75
2017-08-28T08:08:55.279Z,1456.88
2017-08-28T08:09:53.409Z,1473.75
2017-08-28T08:10:53.344Z,1507.50
2017-08-28T08:11:53.477Z,1530.00
2017-08-28T08:12:54.309Z,1569.38
2017-08-28T08:13:57.839Z,1591.88
2017-08-28T08:14:54.283Z,1648.13
2017-08-28T08:15:53.692Z,1653.75
2017-08-28T08:16:53.753Z,1659.38
2017-08-28T08:17:53.782Z,1665.00
2017-08-28T08:18:55.836Z,1659.38
2017-08-28T08:19:53.933Z,1428.75
2017-08-28T08:20:53.974Z,1704.38
2017-08-28T08:21:55.796Z,1676.25
2017-08-28T08:22:54.157Z,1693.13
2017-08-28T08:23:54.206Z,1625.63
2017-08-28T08:24:56.343Z,1220.63
2017-08-28T08:25:54.193Z,1732.50
2017-08-28T08:26:54.330Z,1710.00
2017-08-28T08:27:57.444Z,1636.88
2017-08-28T08:28:54.491Z,1681.88
2017-08-28T08:29:55.844Z,1693.13
2017-08-28T08:30:55.321Z,1698.75
2017-08-28T08:31:54.551Z,1698.75
2017-08-28T08:32:55.338Z,1704.38
2017-08-28T08:33:54.692Z,1698.75
2017-08-28T08:34:56.164Z,1693.13
2017-08-28T08:35:54.774Z,1209.38
2017-08-28T08:36:55.807Z,1035.00
2017-08-28T08:37:55.844Z,1625.63
2017-08-28T08:38:55.027Z,1676.25
2017-08-28T08:39:56.658Z,984.38
2017-08-28T08:40:55.133Z,1648.13
2017-08-28T08:41:57.830Z,1591.88
2017-08-28T08:42:56.747Z,1569.38
2017-08-28T08:43:56.876Z,1186.88
2017-08-28T08:44:57.855Z,1591.88
2017-08-28T08:45:57.679Z,1586.25
2017-08-28T08:46:58.067Z,1468.13
2017-08-28T08:47:58.455Z,1361.25
2017-08-28T08:49:01.528Z,1383.75
2017-08-28T08:49:58.970Z,1063.13
2017-08-28T08:51:01.603Z,950.63
2017-08-28T08:52:02.455Z,1265.63
2017-08-28T08:52:59.046Z,1518.75
2017-08-28T08:53:58.726Z,1260.00
2017-08-28T08:54:59.141Z,1355.63
2017-08-28T08:55:59.821Z,956.25
2017-08-28T08:56:59.308Z,1473.75
2017-08-28T08:57:59.342Z,1428.75
2017-08-28T08:58:59.494Z,1501.88
2017-08-28T08:59:57.373Z,1513.13
2017-08-28T09:00:56.193Z,1513.13
2017-08-28T09:01:58.396Z,1518.75
2017-08-28T09:02:56.380Z,1501.88
2017-08-28T09:03:56.345Z,1490.63
2017-08-28T09:04:56.506Z,1479.38
2017-08-28T09:05:56.523Z,1473.75
2017-08-28T09:06:58.275Z,1445.63
2017-08-28T09:07:57.318Z,1428.75
2017-08-28T09:08:56.716Z,1423.13
2017-08-28T09:09:56.738Z,1411.88
2017-08-28T09:10:56.778Z,1400.63
2017-08-28T09:11:58.283Z,1400.63
2017-08-28T09:12:57.831Z,1417.50
2017-08-28T09:13:57.056Z,1411.88
2017-08-28T09:14:57.813Z,1428.75
2017-08-28T09:15:57.029Z,1445.63
2017-08-28T09:16:59.259Z,1462.50
2017-08-28T09:17:57.194Z,1490.63
2017-08-28T09:18:57.301Z,1518.75
2017-08-28T09:19:57.417Z,1546.88
2017-08-28T09:20:58.457Z,1552.50
2017-08-28T09:21:58.294Z,1535.63
2017-08-28T09:22:59.042Z,1175.63
2017-08-28T09:23:57.528Z,1023.75
2017-08-28T09:24:57.601Z,1063.13
2017-08-28T09:25:59.879Z,1743.75
2017-08-28T09:27:02.840Z,1051.88
2017-08-28T09:28:06.001Z,1057.50
2017-08-28T09:28:57.837Z,1552.50
2017-08-28T09:29:57.802Z,1591.88
2017-08-28T09:30:57.992Z,2109.38
2017-08-28T09:31:58.026Z,1192.50
2017-08-28T09:33:00.338Z,1203.75
2017-08-28T09:33:58.115Z,2171.25
2017-08-28T09:34:58.151Z,2525.63
2017-08-28T09:35:58.381Z,2542.50
2017-08-28T09:36:58.256Z,2565.00
2017-08-28T09:37:58.293Z,2171.25
2017-08-28T09:38:59.797Z,2441.25
2017-08-28T09:39:58.537Z,2610.00
2017-08-28T09:40:58.883Z,2446.88
2017-08-28T09:41:58.638Z,2660.63
2017-08-28T09:42:58.637Z,1085.63
2017-08-28T09:44:00.861Z,2626.88
2017-08-28T09:45:00.009Z,2581.88
2017-08-28T09:45:59.072Z,2638.13
2017-08-28T09:47:01.841Z,2581.88
2017-08-28T09:47:58.980Z,2621.25
2017-08-28T09:49:01.346Z,2677.50
2017-08-28T09:49:58.977Z,2643.75
2017-08-28T09:50:59.326Z,2683.13
2017-08-28T09:52:02.330Z,2666.25
2017-08-28T09:53:02.000Z,2660.63
2017-08-28T09:54:02.004Z,2655.00
2017-08-28T09:55:02.398Z,2671.88
2017-08-28T09:56:02.672Z,2655.00
2017-08-28T09:57:05.819Z,2660.63
2017-08-28T09:58:03.984Z,2666.25
2017-08-28T09:59:03.222Z,1260.00
2017-08-28T10:00:03.782Z,2716.88
2017-08-28T10:01:05.981Z,2728.13
2017-08-28T10:02:05.198Z,1456.88
2017-08-28T10:03:03.360Z,2767.50
2017-08-28T10:04:03.221Z,2745.00
2017-08-28T10:05:01.810Z,1788.75
2017-08-28T10:06:00.031Z,1215.00
2017-08-28T10:07:00.501Z,2874.38
2017-08-28T10:08:00.855Z,2868.75
2017-08-28T10:09:05.958Z,2148.75
2017-08-28T10:10:09.982Z,2941.88
2017-08-28T10:11:05.590Z,2576.25
2017-08-28T10:12:05.180Z,2835.00
2017-08-28T10:13:06.143Z,2902.50
2017-08-28T10:14:05.581Z,2970.00
2017-08-28T10:15:09.080Z,2700.00
2017-08-28T10:16:10.272Z,2930.63
2017-08-28T10:17:19.011Z,2908.13
2017-08-28T10:18:00.290Z,2930.63
2017-08-28T10:19:01.317Z,2970.00
2017-08-28T10:20:00.796Z,3020.63
2017-08-28T10:21:03.975Z,2880.00
2017-08-28T10:22:00.982Z,3065.63
2017-08-28T10:23:01.903Z,3116.25
2017-08-28T10:24:01.061Z,3088.13
2017-08-28T10:25:01.071Z,3093.75
2017-08-28T10:26:04.372Z,3071.25
2017-08-28T10:27:01.204Z,3054.38
2017-08-28T10:28:01.274Z,2992.50
2017-08-28T10:29:01.332Z,2992.50
2017-08-28T10:30:01.293Z,2958.75
2017-08-28T10:31:01.495Z,2272.50
2017-08-28T10:32:02.851Z,2795.63
2017-08-28T10:33:01.580Z,2660.63
2017-08-28T10:34:01.598Z,2593.13
2017-08-28T10:35:01.642Z,2491.88
2017-08-28T10:36:01.720Z,2385.00
2017-08-28T10:37:03.841Z,2300.63
2017-08-28T10:38:02.390Z,2244.38
2017-08-28T10:39:01.883Z,2171.25
2017-08-28T10:40:02.057Z,2098.13
2017-08-28T10:41:02.027Z,2058.75
2017-08-28T10:42:04.322Z,1985.63
2017-08-28T10:43:02.053Z,1923.75
2017-08-28T10:44:02.221Z,1884.38
2017-08-28T10:45:02.207Z,1856.25
2017-08-28T10:46:02.312Z,1861.88
2017-08-28T10:47:03.810Z,1501.88
2017-08-28T10:48:02.391Z,1906.88
2017-08-28T10:49:02.533Z,1946.25
2017-08-28T10:50:02.528Z,1974.38
2017-08-28T10:51:07.417Z,2002.50
2017-08-28T10:52:04.069Z,2036.25
2017-08-28T10:53:02.688Z,2075.63
2017-08-28T10:54:02.765Z,2109.38
2017-08-28T10:55:03.408Z,2092.50
2017-08-28T10:56:07.408Z,2193.75
2017-08-28T10:57:03.028Z,2233.13
2017-08-28T10:58:04.512Z,2272.50
2017-08-28T10:59:04.026Z,2323.13
2017-08-28T11:00:03.099Z,2356.88
2017-08-28T11:01:03.186Z,2435.63
2017-08-28T11:02:03.908Z,2514.38
2017-08-28T11:03:04.730Z,2570.63
2017-08-28T11:04:04.012Z,2655.00
2017-08-28T11:05:03.505Z,2801.25
2017-08-28T11:06:03.537Z,2868.75
2017-08-28T11:07:03.555Z,2896.88
2017-08-28T11:08:03.596Z,3031.88
2017-08-28T11:09:05.006Z,2947.50
2017-08-28T11:10:03.648Z,3144.38
2017-08-28T11:11:04.468Z,3183.75
2017-08-28T11:12:03.840Z,3240.00
2017-08-28T11:13:09.878Z,3211.88
2017-08-28T11:14:12.190Z,3240.00
2017-08-28T11:15:04.209Z,3200.63
2017-08-28T11:16:05.742Z,3245.63
2017-08-28T11:17:08.599Z,3268.13
2017-08-28T11:18:03.678Z,3318.75
2017-08-28T11:19:05.686Z,3352.50
2017-08-28T11:20:06.227Z,3391.88
2017-08-28T11:21:05.652Z,3448.13
2017-08-28T11:22:04.771Z,3493.13
2017-08-28T11:23:04.786Z,3560.63
2017-08-28T11:24:07.296Z,3566.25
2017-08-28T11:25:05.441Z,3605.63
2017-08-28T11:26:04.718Z,3566.25
2017-08-28T11:27:05.427Z,3611.25
2017-08-28T11:28:04.822Z,3628.13
2017-08-28T11:29:06.851Z,3622.50
2017-08-28T11:30:04.928Z,3611.25
2017-08-28T11:31:04.927Z,3549.38
2017-08-28T11:32:05.087Z,3555.00
2017-08-28T11:33:06.935Z,3538.13
2017-08-28T11:34:07.415Z,3504.38
2017-08-28T11:35:05.197Z,3470.63
2017-08-28T11:36:05.720Z,3470.63
2017-08-28T11:37:05.235Z,3476.25
2017-08-28T11:38:05.393Z,3442.50
2017-08-28T11:39:09.037Z,3408.75
2017-08-28T11:40:05.562Z,3397.50
2017-08-28T11:41:05.579Z,3408.75
2017-08-28T11:42:05.642Z,3391.88
2017-08-28T11:43:05.704Z,3369.38
2017-08-28T11:44:07.139Z,3352.50
2017-08-28T11:45:05.827Z,3324.38
2017-08-28T11:46:05.803Z,3324.38
2017-08-28T11:47:05.944Z,3324.38
2017-08-28T11:48:06.052Z,3279.38
2017-08-28T11:49:06.925Z,3268.13
2017-08-28T11:50:07.738Z,3279.38
2017-08-28T11:51:06.178Z,3256.88
2017-08-28T11:52:06.209Z,3240.00
2017-08-28T11:53:06.287Z,3240.00
2017-08-28T11:54:06.635Z,3223.13
2017-08-28T11:55:06.390Z,3178.13
2017-08-28T11:56:08.340Z,3133.13
2017-08-28T11:57:06.540Z,3099.38
2017-08-28T11:58:06.591Z,3088.13
2017-08-28T11:59:06.646Z,3065.63
2017-08-28T12:00:06.711Z,3026.25
2017-08-28T12:01:08.946Z,3015.00
2017-08-28T12:02:06.819Z,2975.63
2017-08-28T12:03:09.437Z,3015.00
2017-08-28T12:04:06.947Z,3015.00
2017-08-28T12:05:07.055Z,2998.13
2017-08-28T12:06:08.802Z,3015.00
2017-08-28T12:07:07.099Z,2981.25
2017-08-28T12:08:07.151Z,2992.50
2017-08-28T12:09:08.076Z,2981.25
2017-08-28T12:10:07.245Z,2953.13
2017-08-28T12:11:08.815Z,2936.25
2017-08-28T12:12:07.432Z,2936.25
2017-08-28T12:13:09.776Z,2930.63
2017-08-28T12:14:07.602Z,2930.63
2017-08-28T12:15:12.455Z,2913.75
2017-08-28T12:16:09.089Z,2896.88
2017-08-28T12:17:07.702Z,2891.25
2017-08-28T12:18:07.811Z,2880.00
2017-08-28T12:19:07.863Z,2863.13
2017-08-28T12:20:07.934Z,2880.00
2017-08-28T12:21:09.398Z,2868.75
2017-08-28T12:22:08.080Z,2868.75
2017-08-28T12:23:08.131Z,2885.63
2017-08-28T12:24:08.192Z,2885.63
2017-08-28T12:25:08.197Z,2863.13
2017-08-28T12:26:09.798Z,2835.00
2017-08-28T12:27:08.363Z,2806.88
2017-08-28T12:28:08.425Z,2756.25
2017-08-28T12:29:09.468Z,2711.25
2017-08-28T12:30:08.566Z,2683.13
2017-08-28T12:31:08.635Z,2666.25
2017-08-28T12:32:09.165Z,2626.88
2017-08-28T12:33:12.958Z,2604.38
2017-08-28T12:34:12.125Z,2593.13
2017-08-28T12:35:12.264Z,2587.50
2017-08-28T12:36:11.789Z,2576.25
2017-08-28T12:37:12.861Z,2565.00
2017-08-28T12:38:17.616Z,2559.38